sensor_id;sensor_type;location;lat;lon;timestamp;P1;durP1;ratioP1;P2;durP2;ratioP2
23578;SDS011;11967;50.852;4.400;2022-12-18T00:00:40;59.35;;;30.92;;
23578;SDS011;11967;50.852;4.400;2022-12-18T00:03:07;66.20;;;31.60;;
23578;SDS011;11967;50.852;4.400;2022-12-18T00:05:33;65.07;;;31.65;;
23578;SDS011;11967;50.852;4.400;2022-12-18T00:07:59;58.22;;;31.40;;
23578;SDS011;11967;50.852;4.400;2022-12-18T00:10:24;59.45;;;32.08;;
23578;SDS011;11967;50.852;4.400;2022-12-18T00:12:51;56.00;;;30.05;;
23578;SDS011;11967;50.852;4.400;2022-12-18T00:15:16;56.47;;;30.55;;
23578;SDS011;11967;50.852;4.400;2022-12-18T00:17:42;63.33;;;31.17;;
23578;SDS011;11967;50.852;4.400;2022-12-18T00:20:08;58.30;;;30.98;;
23578;SDS011;11967;50.852;4.400;2022-12-18T00:22:34;57.90;;;29.45;;
23578;SDS011;11967;50.852;4.400;2022-12-18T00:24:59;56.92;;;29.08;;
23578;SDS011;11967;50.852;4.400;2022-12-18T00:27:25;54.22;;;28.65;;
23578;SDS011;11967;50.852;4.400;2022-12-18T00:29:50;52.20;;;27.75;;
23578;SDS011;11967;50.852;4.400;2022-12-18T00:32:16;54.03;;;29.00;;
23578;SDS011;11967;50.852;4.400;2022-12-18T00:34:42;50.67;;;26.73;;
23578;SDS011;11967;50.852;4.400;2022-12-18T00:37:07;54.35;;;27.95;;
23578;SDS011;11967;50.852;4.400;2022-12-18T00:39:33;47.65;;;24.60;;
23578;SDS011;11967;50.852;4.400;2022-12-18T00:41:59;45.50;;;24.10;;
23578;SDS011;11967;50.852;4.400;2022-12-18T00:44:43;41.90;;;22.92;;
23578;SDS011;11967;50.852;4.400;2022-12-18T00:47:08;44.70;;;22.88;;
23578;SDS011;11967;50.852;4.400;2022-12-18T00:49:34;37.42;;;20.80;;
23578;SDS011;11967;50.852;4.400;2022-12-18T00:51:59;35.63;;;19.40;;
23578;SDS011;11967;50.852;4.400;2022-12-18T00:54:25;32.50;;;18.33;;
23578;SDS011;11967;50.852;4.400;2022-12-18T00:56:51;35.25;;;18.20;;
23578;SDS011;11967;50.852;4.400;2022-12-18T00:59:17;32.28;;;17.85;;
23578;SDS011;11967;50.852;4.400;2022-12-18T01:01:43;32.42;;;17.10;;
23578;SDS011;11967;50.852;4.400;2022-12-18T01:04:09;33.75;;;17.48;;
23578;SDS011;11967;50.852;4.400;2022-12-18T01:06:35;30.27;;;17.58;;
23578;SDS011;11967;50.852;4.400;2022-12-18T01:09:02;34.40;;;18.20;;
23578;SDS011;11967;50.852;4.400;2022-12-18T01:11:27;32.13;;;17.15;;
23578;SDS011;11967;50.852;4.400;2022-12-18T01:13:53;32.67;;;17.52;;
23578;SDS011;11967;50.852;4.400;2022-12-18T01:16:21;31.15;;;17.17;;
23578;SDS011;11967;50.852;4.400;2022-12-18T01:18:49;31.77;;;17.45;;
23578;SDS011;11967;50.852;4.400;2022-12-18T01:21:17;31.10;;;16.48;;
23578;SDS011;11967;50.852;4.400;2022-12-18T01:23:43;30.30;;;16.35;;
23578;SDS011;11967;50.852;4.400;2022-12-18T01:26:09;31.40;;;16.60;;
23578;SDS011;11967;50.852;4.400;2022-12-18T01:28:37;28.38;;;15.63;;
23578;SDS011;11967;50.852;4.400;2022-12-18T01:31:11;29.83;;;15.93;;
23578;SDS011;11967;50.852;4.400;2022-12-18T01:33:37;28.02;;;15.07;;
23578;SDS011;11967;50.852;4.400;2022-12-18T01:36:02;29.02;;;16.02;;
23578;SDS011;11967;50.852;4.400;2022-12-18T01:38:28;27.55;;;15.77;;
23578;SDS011;11967;50.852;4.400;2022-12-18T01:41:00;25.92;;;14.45;;
23578;SDS011;11967;50.852;4.400;2022-12-18T01:43:42;26.58;;;15.23;;
23578;SDS011;11967;50.852;4.400;2022-12-18T01:46:11;31.92;;;15.80;;
23578;SDS011;11967;50.852;4.400;2022-12-18T01:48:37;27.13;;;15.15;;
23578;SDS011;11967;50.852;4.400;2022-12-18T01:51:06;25.55;;;15.00;;
23578;SDS011;11967;50.852;4.400;2022-12-18T01:53:33;24.73;;;14.73;;
23578;SDS011;11967;50.852;4.400;2022-12-18T01:55:59;28.95;;;14.18;;
23578;SDS011;11967;50.852;4.400;2022-12-18T01:58:37;28.20;;;14.88;;
23578;SDS011;11967;50.852;4.400;2022-12-18T02:01:03;27.67;;;15.02;;
23578;SDS011;11967;50.852;4.400;2022-12-18T02:03:29;26.73;;;15.18;;
23578;SDS011;11967;50.852;4.400;2022-12-18T02:08:53;28.38;;;15.27;;
23578;SDS011;11967;50.852;4.400;2022-12-18T02:12:04;25.88;;;14.25;;
23578;SDS011;11967;50.852;4.400;2022-12-18T02:14:25;26.52;;;14.50;;
23578;SDS011;11967;50.852;4.400;2022-12-18T02:19:53;27.88;;;15.52;;
23578;SDS011;11967;50.852;4.400;2022-12-18T02:28:18;31.55;;;16.25;;
23578;SDS011;11967;50.852;4.400;2022-12-18T02:30:47;32.90;;;16.85;;
23578;SDS011;11967;50.852;4.400;2022-12-18T02:33:15;31.45;;;17.27;;
23578;SDS011;11967;50.852;4.400;2022-12-18T02:35:42;31.08;;;17.45;;
23578;SDS011;11967;50.852;4.400;2022-12-18T02:38:10;32.97;;;17.27;;
23578;SDS011;11967;50.852;4.400;2022-12-18T02:40:37;31.95;;;17.48;;
23578;SDS011;11967;50.852;4.400;2022-12-18T02:43:12;33.30;;;18.13;;
23578;SDS011;11967;50.852;4.400;2022-12-18T02:45:49;30.98;;;16.77;;
23578;SDS011;11967;50.852;4.400;2022-12-18T02:48:18;32.15;;;17.67;;
23578;SDS011;11967;50.852;4.400;2022-12-18T02:50:59;36.03;;;17.90;;
23578;SDS011;11967;50.852;4.400;2022-12-18T02:53:33;35.05;;;17.08;;
23578;SDS011;11967;50.852;4.400;2022-12-18T02:56:15;32.50;;;17.45;;
23578;SDS011;11967;50.852;4.400;2022-12-18T03:01:19;33.30;;;17.80;;
23578;SDS011;11967;50.852;4.400;2022-12-18T03:03:58;33.15;;;18.40;;
23578;SDS011;11967;50.852;4.400;2022-12-18T03:08:56;31.95;;;18.38;;
23578;SDS011;11967;50.852;4.400;2022-12-18T03:11:26;34.22;;;18.83;;
23578;SDS011;11967;50.852;4.400;2022-12-18T03:14:15;32.80;;;18.70;;
23578;SDS011;11967;50.852;4.400;2022-12-18T03:16:42;33.22;;;18.52;;
23578;SDS011;11967;50.852;4.400;2022-12-18T03:19:16;35.97;;;19.60;;
23578;SDS011;11967;50.852;4.400;2022-12-18T03:21:45;34.83;;;18.80;;
23578;SDS011;11967;50.852;4.400;2022-12-18T03:24:14;37.03;;;19.15;;
23578;SDS011;11967;50.852;4.400;2022-12-18T03:26:42;31.52;;;18.13;;
23578;SDS011;11967;50.852;4.400;2022-12-18T03:29:46;31.23;;;18.13;;
23578;SDS011;11967;50.852;4.400;2022-12-18T03:32:11;32.13;;;18.30;;
23578;SDS011;11967;50.852;4.400;2022-12-18T03:34:43;29.60;;;16.88;;
23578;SDS011;11967;50.852;4.400;2022-12-18T03:37:12;31.52;;;17.85;;
23578;SDS011;11967;50.852;4.400;2022-12-18T03:39:38;32.13;;;16.85;;
23578;SDS011;11967;50.852;4.400;2022-12-18T03:44:37;30.50;;;17.75;;
23578;SDS011;11967;50.852;4.400;2022-12-18T03:47:26;31.05;;;17.20;;
23578;SDS011;11967;50.852;4.400;2022-12-18T03:52:46;30.50;;;16.52;;
23578;SDS011;11967;50.852;4.400;2022-12-18T03:55:25;32.65;;;17.10;;
23578;SDS011;11967;50.852;4.400;2022-12-18T03:57:53;31.90;;;16.90;;
23578;SDS011;11967;50.852;4.400;2022-12-18T04:00:19;29.15;;;16.27;;
23578;SDS011;11967;50.852;4.400;2022-12-18T04:02:47;27.17;;;15.70;;
23578;SDS011;11967;50.852;4.400;2022-12-18T04:05:17;26.85;;;16.13;;
23578;SDS011;11967;50.852;4.400;2022-12-18T04:07:44;28.25;;;16.33;;
23578;SDS011;11967;50.852;4.400;2022-12-18T04:10:12;26.95;;;15.85;;
23578;SDS011;11967;50.852;4.400;2022-12-18T04:12:41;28.95;;;16.02;;
23578;SDS011;11967;50.852;4.400;2022-12-18T04:15:07;26.17;;;15.98;;
23578;SDS011;11967;50.852;4.400;2022-12-18T04:17:33;28.42;;;15.57;;
23578;SDS011;11967;50.852;4.400;2022-12-18T04:19:59;29.60;;;16.25;;
23578;SDS011;11967;50.852;4.400;2022-12-18T04:22:24;29.20;;;15.40;;
23578;SDS011;11967;50.852;4.400;2022-12-18T04:24:50;27.58;;;15.40;;
23578;SDS011;11967;50.852;4.400;2022-12-18T04:27:16;25.95;;;15.30;;
23578;SDS011;11967;50.852;4.400;2022-12-18T04:29:41;29.33;;;16.05;;
23578;SDS011;11967;50.852;4.400;2022-12-18T04:32:07;26.10;;;14.82;;
23578;SDS011;11967;50.852;4.400;2022-12-18T04:34:33;29.80;;;14.30;;
23578;SDS011;11967;50.852;4.400;2022-12-18T04:36:59;25.65;;;14.85;;
23578;SDS011;11967;50.852;4.400;2022-12-18T04:39:24;24.38;;;14.38;;
23578;SDS011;11967;50.852;4.400;2022-12-18T04:41:50;27.70;;;14.95;;
23578;SDS011;11967;50.852;4.400;2022-12-18T04:44:16;26.20;;;14.73;;
23578;SDS011;11967;50.852;4.400;2022-12-18T04:46:41;26.73;;;14.65;;
23578;SDS011;11967;50.852;4.400;2022-12-18T04:49:07;25.17;;;14.50;;
23578;SDS011;11967;50.852;4.400;2022-12-18T04:51:36;26.92;;;14.95;;
23578;SDS011;11967;50.852;4.400;2022-12-18T04:54:02;26.45;;;14.27;;
23578;SDS011;11967;50.852;4.400;2022-12-18T04:56:28;25.33;;;14.05;;
23578;SDS011;11967;50.852;4.400;2022-12-18T04:58:55;26.10;;;14.85;;
23578;SDS011;11967;50.852;4.400;2022-12-18T05:01:20;25.38;;;13.85;;
23578;SDS011;11967;50.852;4.400;2022-12-18T05:03:46;24.08;;;14.23;;
23578;SDS011;11967;50.852;4.400;2022-12-18T05:06:12;26.98;;;14.45;;
23578;SDS011;11967;50.852;4.400;2022-12-18T05:08:37;23.55;;;13.77;;
23578;SDS011;11967;50.852;4.400;2022-12-18T05:13:31;23.60;;;13.77;;
23578;SDS011;11967;50.852;4.400;2022-12-18T05:15:57;25.17;;;14.02;;
23578;SDS011;11967;50.852;4.400;2022-12-18T05:18:23;26.15;;;13.60;;
23578;SDS011;11967;50.852;4.400;2022-12-18T05:20:50;24.55;;;13.27;;
23578;SDS011;11967;50.852;4.400;2022-12-18T05:23:17;20.52;;;12.55;;
23578;SDS011;11967;50.852;4.400;2022-12-18T05:25:46;23.95;;;14.07;;
23578;SDS011;11967;50.852;4.400;2022-12-18T05:28:22;23.70;;;13.02;;
23578;SDS011;11967;50.852;4.400;2022-12-18T05:30:49;22.05;;;12.90;;
23578;SDS011;11967;50.852;4.400;2022-12-18T05:33:23;26.75;;;12.75;;
23578;SDS011;11967;50.852;4.400;2022-12-18T05:35:50;23.70;;;13.57;;
23578;SDS011;11967;50.852;4.400;2022-12-18T05:38:21;24.95;;;13.30;;
23578;SDS011;11967;50.852;4.400;2022-12-18T05:40:47;24.67;;;13.05;;
23578;SDS011;11967;50.852;4.400;2022-12-18T05:43:14;23.20;;;13.25;;
23578;SDS011;11967;50.852;4.400;2022-12-18T05:45:41;22.67;;;13.85;;
23578;SDS011;11967;50.852;4.400;2022-12-18T05:48:08;23.10;;;13.65;;
23578;SDS011;11967;50.852;4.400;2022-12-18T05:50:37;22.45;;;13.00;;
23578;SDS011;11967;50.852;4.400;2022-12-18T05:53:04;22.98;;;13.23;;
23578;SDS011;11967;50.852;4.400;2022-12-18T05:55:34;24.00;;;13.02;;
23578;SDS011;11967;50.852;4.400;2022-12-18T05:58:00;21.65;;;12.73;;
23578;SDS011;11967;50.852;4.400;2022-12-18T06:00:27;25.00;;;14.25;;
23578;SDS011;11967;50.852;4.400;2022-12-18T06:02:53;22.60;;;13.27;;
23578;SDS011;11967;50.852;4.400;2022-12-18T06:05:19;23.75;;;13.70;;
23578;SDS011;11967;50.852;4.400;2022-12-18T06:07:45;23.80;;;12.25;;
23578;SDS011;11967;50.852;4.400;2022-12-18T06:10:10;21.85;;;11.73;;
23578;SDS011;11967;50.852;4.400;2022-12-18T06:12:36;22.40;;;11.77;;
23578;SDS011;11967;50.852;4.400;2022-12-18T06:15:02;20.75;;;12.38;;
23578;SDS011;11967;50.852;4.400;2022-12-18T06:17:31;19.67;;;11.85;;
23578;SDS011;11967;50.852;4.400;2022-12-18T06:19:58;24.60;;;12.43;;
23578;SDS011;11967;50.852;4.400;2022-12-18T06:22:23;21.83;;;11.15;;
23578;SDS011;11967;50.852;4.400;2022-12-18T06:24:49;19.15;;;11.57;;
23578;SDS011;11967;50.852;4.400;2022-12-18T06:27:15;23.05;;;10.73;;
23578;SDS011;11967;50.852;4.400;2022-12-18T06:29:41;20.02;;;11.30;;
23578;SDS011;11967;50.852;4.400;2022-12-18T06:32:06;19.98;;;11.23;;
23578;SDS011;11967;50.852;4.400;2022-12-18T06:34:32;21.17;;;10.88;;
23578;SDS011;11967;50.852;4.400;2022-12-18T06:36:58;17.63;;;10.45;;
23578;SDS011;11967;50.852;4.400;2022-12-18T06:39:24;19.38;;;10.75;;
23578;SDS011;11967;50.852;4.400;2022-12-18T06:41:49;21.30;;;10.52;;
23578;SDS011;11967;50.852;4.400;2022-12-18T06:44:15;17.10;;;9.65;;
23578;SDS011;11967;50.852;4.400;2022-12-18T06:46:41;14.68;;;9.48;;
23578;SDS011;11967;50.852;4.400;2022-12-18T06:49:06;18.95;;;9.95;;
23578;SDS011;11967;50.852;4.400;2022-12-18T06:51:34;17.42;;;9.98;;
23578;SDS011;11967;50.852;4.400;2022-12-18T06:53:59;17.23;;;10.18;;
23578;SDS011;11967;50.852;4.400;2022-12-18T06:56:25;18.15;;;9.68;;
23578;SDS011;11967;50.852;4.400;2022-12-18T06:58:51;16.00;;;9.57;;
23578;SDS011;11967;50.852;4.400;2022-12-18T07:01:16;14.77;;;9.27;;
23578;SDS011;11967;50.852;4.400;2022-12-18T07:03:43;19.52;;;9.93;;
23578;SDS011;11967;50.852;4.400;2022-12-18T07:06:16;17.27;;;9.38;;
23578;SDS011;11967;50.852;4.400;2022-12-18T07:08:43;14.90;;;9.38;;
23578;SDS011;11967;50.852;4.400;2022-12-18T07:11:09;14.10;;;8.75;;
23578;SDS011;11967;50.852;4.400;2022-12-18T07:13:35;15.73;;;8.98;;
23578;SDS011;11967;50.852;4.400;2022-12-18T07:16:05;18.33;;;10.38;;
23578;SDS011;11967;50.852;4.400;2022-12-18T07:18:35;14.38;;;8.68;;
23578;SDS011;11967;50.852;4.400;2022-12-18T07:21:05;15.63;;;9.00;;
23578;SDS011;11967;50.852;4.400;2022-12-18T07:23:32;17.38;;;9.63;;
23578;SDS011;11967;50.852;4.400;2022-12-18T07:26:04;18.65;;;10.05;;
23578;SDS011;11967;50.852;4.400;2022-12-18T07:28:31;14.33;;;7.23;;
23578;SDS011;11967;50.852;4.400;2022-12-18T07:30:58;17.85;;;8.93;;
23578;SDS011;11967;50.852;4.400;2022-12-18T07:33:29;15.88;;;9.52;;
23578;SDS011;11967;50.852;4.400;2022-12-18T07:35:54;17.90;;;9.45;;
23578;SDS011;11967;50.852;4.400;2022-12-18T07:38:20;14.88;;;9.07;;
23578;SDS011;11967;50.852;4.400;2022-12-18T07:40:46;16.08;;;9.40;;
23578;SDS011;11967;50.852;4.400;2022-12-18T07:43:11;16.77;;;8.57;;
23578;SDS011;11967;50.852;4.400;2022-12-18T07:45:37;17.63;;;9.73;;
23578;SDS011;11967;50.852;4.400;2022-12-18T07:48:02;16.17;;;9.02;;
23578;SDS011;11967;50.852;4.400;2022-12-18T07:50:28;19.70;;;10.00;;
23578;SDS011;11967;50.852;4.400;2022-12-18T07:52:54;15.50;;;8.98;;
23578;SDS011;11967;50.852;4.400;2022-12-18T07:55:19;13.18;;;8.52;;
23578;SDS011;11967;50.852;4.400;2022-12-18T07:57:45;15.57;;;9.07;;
23578;SDS011;11967;50.852;4.400;2022-12-18T08:00:11;14.95;;;8.35;;
23578;SDS011;11967;50.852;4.400;2022-12-18T08:02:37;14.07;;;8.20;;
23578;SDS011;11967;50.852;4.400;2022-12-18T08:05:02;14.13;;;8.25;;
23578;SDS011;11967;50.852;4.400;2022-12-18T08:07:28;14.63;;;8.48;;
23578;SDS011;11967;50.852;4.400;2022-12-18T08:09:54;15.50;;;8.93;;
23578;SDS011;11967;50.852;4.400;2022-12-18T08:12:20;12.95;;;8.13;;
23578;SDS011;11967;50.852;4.400;2022-12-18T08:14:46;14.15;;;8.57;;
23578;SDS011;11967;50.852;4.400;2022-12-18T08:17:12;14.45;;;8.20;;
23578;SDS011;11967;50.852;4.400;2022-12-18T08:19:37;16.42;;;9.07;;
23578;SDS011;11967;50.852;4.400;2022-12-18T08:22:03;15.63;;;8.93;;
23578;SDS011;11967;50.852;4.400;2022-12-18T08:24:28;15.75;;;8.80;;
23578;SDS011;11967;50.852;4.400;2022-12-18T08:26:54;15.25;;;8.25;;
23578;SDS011;11967;50.852;4.400;2022-12-18T08:29:22;15.43;;;8.57;;
23578;SDS011;11967;50.852;4.400;2022-12-18T08:31:47;14.88;;;7.63;;
23578;SDS011;11967;50.852;4.400;2022-12-18T08:34:13;16.45;;;8.68;;
23578;SDS011;11967;50.852;4.400;2022-12-18T08:36:39;12.35;;;8.10;;
23578;SDS011;11967;50.852;4.400;2022-12-18T08:39:05;14.10;;;8.15;;
23578;SDS011;11967;50.852;4.400;2022-12-18T08:41:30;15.43;;;8.27;;
23578;SDS011;11967;50.852;4.400;2022-12-18T08:43:56;16.23;;;8.60;;
23578;SDS011;11967;50.852;4.400;2022-12-18T08:46:41;14.95;;;8.95;;
23578;SDS011;11967;50.852;4.400;2022-12-18T08:49:08;14.63;;;8.68;;
23578;SDS011;11967;50.852;4.400;2022-12-18T08:51:35;16.95;;;9.55;;
23578;SDS011;11967;50.852;4.400;2022-12-18T08:54:01;15.45;;;8.93;;
23578;SDS011;11967;50.852;4.400;2022-12-18T08:56:27;19.00;;;10.10;;
23578;SDS011;11967;50.852;4.400;2022-12-18T08:58:55;17.38;;;9.65;;
23578;SDS011;11967;50.852;4.400;2022-12-18T09:01:22;18.27;;;10.15;;
23578;SDS011;11967;50.852;4.400;2022-12-18T09:03:48;17.02;;;9.90;;
23578;SDS011;11967;50.852;4.400;2022-12-18T09:06:15;18.08;;;10.20;;
23578;SDS011;11967;50.852;4.400;2022-12-18T09:08:43;18.58;;;9.35;;
23578;SDS011;11967;50.852;4.400;2022-12-18T09:11:25;16.90;;;10.30;;
23578;SDS011;11967;50.852;4.400;2022-12-18T09:13:52;15.77;;;10.07;;
23578;SDS011;11967;50.852;4.400;2022-12-18T09:16:18;18.60;;;9.80;;
23578;SDS011;11967;50.852;4.400;2022-12-18T09:18:45;18.85;;;10.35;;
23578;SDS011;11967;50.852;4.400;2022-12-18T09:21:12;18.48;;;10.25;;
23578;SDS011;11967;50.852;4.400;2022-12-18T09:23:40;17.08;;;10.38;;
23578;SDS011;11967;50.852;4.400;2022-12-18T09:26:06;20.08;;;10.43;;
23578;SDS011;11967;50.852;4.400;2022-12-18T09:28:32;20.52;;;11.13;;
23578;SDS011;11967;50.852;4.400;2022-12-18T09:30:58;18.83;;;10.93;;
23578;SDS011;11967;50.852;4.400;2022-12-18T09:33:29;17.73;;;11.18;;
23578;SDS011;11967;50.852;4.400;2022-12-18T09:35:54;17.27;;;10.48;;
23578;SDS011;11967;50.852;4.400;2022-12-18T09:38:20;20.17;;;11.07;;
23578;SDS011;11967;50.852;4.400;2022-12-18T09:40:47;17.48;;;11.02;;
23578;SDS011;11967;50.852;4.400;2022-12-18T09:43:37;25.70;;;10.90;;
23578;SDS011;11967;50.852;4.400;2022-12-18T09:46:05;18.92;;;11.57;;
23578;SDS011;11967;50.852;4.400;2022-12-18T09:48:40;20.05;;;11.73;;
23578;SDS011;11967;50.852;4.400;2022-12-18T09:51:21;21.98;;;11.93;;
23578;SDS011;11967;50.852;4.400;2022-12-18T09:53:59;19.20;;;11.48;;
23578;SDS011;11967;50.852;4.400;2022-12-18T09:56:31;21.83;;;12.45;;
23578;SDS011;11967;50.852;4.400;2022-12-18T09:59:03;20.30;;;11.85;;
23578;SDS011;11967;50.852;4.400;2022-12-18T10:01:31;20.45;;;12.13;;
23578;SDS011;11967;50.852;4.400;2022-12-18T10:03:57;20.02;;;12.00;;
23578;SDS011;11967;50.852;4.400;2022-12-18T10:06:32;20.88;;;12.10;;
23578;SDS011;11967;50.852;4.400;2022-12-18T10:12:06;24.85;;;13.25;;
23578;SDS011;11967;50.852;4.400;2022-12-18T10:25:34;24.63;;;14.30;;
23578;SDS011;11967;50.852;4.400;2022-12-18T10:28:08;24.35;;;14.15;;
23578;SDS011;11967;50.852;4.400;2022-12-18T10:30:37;26.95;;;13.82;;
23578;SDS011;11967;50.852;4.400;2022-12-18T10:33:04;28.05;;;14.38;;
23578;SDS011;11967;50.852;4.400;2022-12-18T10:35:30;25.15;;;14.25;;
23578;SDS011;11967;50.852;4.400;2022-12-18T10:40:31;23.63;;;13.32;;
23578;SDS011;11967;50.852;4.400;2022-12-18T10:48:25;22.13;;;13.90;;
23578;SDS011;11967;50.852;4.400;2022-12-18T10:50:52;24.02;;;13.75;;
23578;SDS011;11967;50.852;4.400;2022-12-18T10:53:20;22.75;;;13.50;;
23578;SDS011;11967;50.852;4.400;2022-12-18T10:55:51;21.77;;;13.63;;
23578;SDS011;11967;50.852;4.400;2022-12-18T10:58:26;25.98;;;14.45;;
23578;SDS011;11967;50.852;4.400;2022-12-18T11:03:58;23.83;;;14.55;;
23578;SDS011;11967;50.852;4.400;2022-12-18T11:06:25;28.92;;;15.00;;
23578;SDS011;11967;50.852;4.400;2022-12-18T11:09:02;25.20;;;14.93;;
23578;SDS011;11967;50.852;4.400;2022-12-18T11:11:29;24.48;;;14.60;;
23578;SDS011;11967;50.852;4.400;2022-12-18T11:14:01;29.23;;;16.30;;
23578;SDS011;11967;50.852;4.400;2022-12-18T11:16:36;28.15;;;15.90;;
23578;SDS011;11967;50.852;4.400;2022-12-18T11:19:14;30.85;;;16.90;;
23578;SDS011;11967;50.852;4.400;2022-12-18T11:21:46;26.08;;;15.05;;
23578;SDS011;11967;50.852;4.400;2022-12-18T11:24:49;25.55;;;15.02;;
23578;SDS011;11967;50.852;4.400;2022-12-18T11:27:05;24.67;;;14.65;;
23578;SDS011;11967;50.852;4.400;2022-12-18T11:29:40;28.13;;;16.20;;
23578;SDS011;11967;50.852;4.400;2022-12-18T11:32:19;26.13;;;15.88;;
23578;SDS011;11967;50.852;4.400;2022-12-18T11:34:47;27.90;;;15.98;;
23578;SDS011;11967;50.852;4.400;2022-12-18T11:37:15;25.33;;;15.43;;
23578;SDS011;11967;50.852;4.400;2022-12-18T11:39:57;32.25;;;16.63;;
23578;SDS011;11967;50.852;4.400;2022-12-18T11:42:36;42.40;;;21.17;;
23578;SDS011;11967;50.852;4.400;2022-12-18T11:50:12;28.77;;;16.60;;
23578;SDS011;11967;50.852;4.400;2022-12-18T11:52:44;27.42;;;15.75;;
23578;SDS011;11967;50.852;4.400;2022-12-18T11:55:14;26.67;;;15.75;;
23578;SDS011;11967;50.852;4.400;2022-12-18T11:57:54;25.30;;;15.30;;
23578;SDS011;11967;50.852;4.400;2022-12-18T12:00:32;28.02;;;15.35;;
23578;SDS011;11967;50.852;4.400;2022-12-18T12:09:07;34.50;;;15.07;;
23578;SDS011;11967;50.852;4.400;2022-12-18T12:12:08;27.90;;;15.25;;
23578;SDS011;11967;50.852;4.400;2022-12-18T12:15:13;26.37;;;15.57;;
23578;SDS011;11967;50.852;4.400;2022-12-18T12:23:06;28.58;;;16.15;;
23578;SDS011;11967;50.852;4.400;2022-12-18T12:28:32;26.13;;;14.57;;
23578;SDS011;11967;50.852;4.400;2022-12-18T12:31:21;26.25;;;15.23;;
23578;SDS011;11967;50.852;4.400;2022-12-18T12:34:03;30.05;;;15.75;;
23578;SDS011;11967;50.852;4.400;2022-12-18T12:37:01;31.80;;;16.42;;
23578;SDS011;11967;50.852;4.400;2022-12-18T12:39:32;29.27;;;16.02;;
23578;SDS011;11967;50.852;4.400;2022-12-18T12:42:02;31.83;;;16.50;;
23578;SDS011;11967;50.852;4.400;2022-12-18T12:44:54;31.40;;;16.02;;
23578;SDS011;11967;50.852;4.400;2022-12-18T12:47:25;24.27;;;12.77;;
23578;SDS011;11967;50.852;4.400;2022-12-18T12:49:55;27.73;;;16.23;;
23578;SDS011;11967;50.852;4.400;2022-12-18T12:52:33;31.27;;;16.77;;
23578;SDS011;11967;50.852;4.400;2022-12-18T12:55:05;33.85;;;17.35;;
23578;SDS011;11967;50.852;4.400;2022-12-18T12:57:39;29.38;;;16.30;;
23578;SDS011;11967;50.852;4.400;2022-12-18T13:00:13;33.13;;;17.20;;
23578;SDS011;11967;50.852;4.400;2022-12-18T13:05:37;30.77;;;16.88;;
23578;SDS011;11967;50.852;4.400;2022-12-18T13:08:11;32.20;;;17.27;;
23578;SDS011;11967;50.852;4.400;2022-12-18T13:10:51;31.70;;;16.23;;
23578;SDS011;11967;50.852;4.400;2022-12-18T13:13:59;31.50;;;17.10;;
23578;SDS011;11967;50.852;4.400;2022-12-18T13:16:24;32.03;;;16.98;;
23578;SDS011;11967;50.852;4.400;2022-12-18T13:18:53;29.85;;;15.85;;
23578;SDS011;11967;50.852;4.400;2022-12-18T13:23:52;34.08;;;18.17;;
23578;SDS011;11967;50.852;4.400;2022-12-18T13:34:15;34.60;;;17.77;;
23578;SDS011;11967;50.852;4.400;2022-12-18T13:36:56;33.72;;;18.13;;
23578;SDS011;11967;50.852;4.400;2022-12-18T13:39:43;34.70;;;18.48;;
23578;SDS011;11967;50.852;4.400;2022-12-18T13:44:54;35.22;;;18.73;;
23578;SDS011;11967;50.852;4.400;2022-12-18T13:47:33;35.00;;;19.13;;
23578;SDS011;11967;50.852;4.400;2022-12-18T13:50:23;35.63;;;19.67;;
23578;SDS011;11967;50.852;4.400;2022-12-18T13:52:49;37.30;;;18.77;;
23578;SDS011;11967;50.852;4.400;2022-12-18T13:55:17;36.30;;;19.55;;
23578;SDS011;11967;50.852;4.400;2022-12-18T13:57:44;37.65;;;19.33;;
23578;SDS011;11967;50.852;4.400;2022-12-18T14:02:48;35.97;;;19.48;;
23578;SDS011;11967;50.852;4.400;2022-12-18T14:07:51;39.22;;;20.40;;
23578;SDS011;11967;50.852;4.400;2022-12-18T14:10:18;41.50;;;20.17;;
23578;SDS011;11967;50.852;4.400;2022-12-18T14:12:46;40.13;;;20.30;;
23578;SDS011;11967;50.852;4.400;2022-12-18T14:20:48;42.83;;;21.00;;
23578;SDS011;11967;50.852;4.400;2022-12-18T14:23:35;44.63;;;22.67;;
23578;SDS011;11967;50.852;4.400;2022-12-18T14:26:19;45.70;;;21.73;;
23578;SDS011;11967;50.852;4.400;2022-12-18T14:28:47;43.42;;;22.05;;
23578;SDS011;11967;50.852;4.400;2022-12-18T14:31:23;39.75;;;21.85;;
23578;SDS011;11967;50.852;4.400;2022-12-18T14:33:50;45.45;;;22.25;;
23578;SDS011;11967;50.852;4.400;2022-12-18T14:36:18;44.80;;;21.77;;
23578;SDS011;11967;50.852;4.400;2022-12-18T14:38:52;45.63;;;22.25;;
23578;SDS011;11967;50.852;4.400;2022-12-18T14:41:21;43.63;;;22.80;;
23578;SDS011;11967;50.852;4.400;2022-12-18T14:43:49;45.00;;;23.33;;
23578;SDS011;11967;50.852;4.400;2022-12-18T14:48:54;45.47;;;22.75;;
23578;SDS011;11967;50.852;4.400;2022-12-18T14:51:21;49.33;;;23.15;;
23578;SDS011;11967;50.852;4.400;2022-12-18T14:53:58;48.88;;;22.98;;
23578;SDS011;11967;50.852;4.400;2022-12-18T14:56:36;40.88;;;22.52;;
23578;SDS011;11967;50.852;4.400;2022-12-18T14:59:19;43.75;;;23.17;;
23578;SDS011;11967;50.852;4.400;2022-12-18T15:04:44;45.58;;;22.73;;
23578;SDS011;11967;50.852;4.400;2022-12-18T15:09:41;51.78;;;24.75;;
23578;SDS011;11967;50.852;4.400;2022-12-18T15:12:21;49.22;;;24.33;;
23578;SDS011;11967;50.852;4.400;2022-12-18T15:14:50;48.80;;;23.58;;
23578;SDS011;11967;50.852;4.400;2022-12-18T15:17:20;46.20;;;24.08;;
23578;SDS011;11967;50.852;4.400;2022-12-18T15:19:48;45.10;;;23.10;;
23578;SDS011;11967;50.852;4.400;2022-12-18T15:24:50;49.65;;;25.45;;
23578;SDS011;11967;50.852;4.400;2022-12-18T15:27:30;57.58;;;27.92;;
23578;SDS011;11967;50.852;4.400;2022-12-18T15:32:26;52.45;;;25.80;;
23578;SDS011;11967;50.852;4.400;2022-12-18T15:35:02;52.45;;;26.52;;
23578;SDS011;11967;50.852;4.400;2022-12-18T15:37:33;46.97;;;24.50;;
23578;SDS011;11967;50.852;4.400;2022-12-18T15:39:59;44.85;;;22.77;;
23578;SDS011;11967;50.852;4.400;2022-12-18T15:42:24;45.33;;;22.23;;
23578;SDS011;11967;50.852;4.400;2022-12-18T15:45:12;42.78;;;21.95;;
23578;SDS011;11967;50.852;4.400;2022-12-18T15:47:38;41.92;;;22.13;;
23578;SDS011;11967;50.852;4.400;2022-12-18T15:50:04;47.58;;;23.23;;
23578;SDS011;11967;50.852;4.400;2022-12-18T15:52:32;46.10;;;23.13;;
23578;SDS011;11967;50.852;4.400;2022-12-18T15:55:05;44.95;;;22.35;;
23578;SDS011;11967;50.852;4.400;2022-12-18T15:57:53;45.78;;;22.98;;
23578;SDS011;11967;50.852;4.400;2022-12-18T16:00:19;45.10;;;23.40;;
23578;SDS011;11967;50.852;4.400;2022-12-18T16:02:45;40.28;;;21.90;;
23578;SDS011;11967;50.852;4.400;2022-12-18T16:05:14;42.67;;;21.40;;
23578;SDS011;11967;50.852;4.400;2022-12-18T16:07:41;45.78;;;22.90;;
23578;SDS011;11967;50.852;4.400;2022-12-18T16:10:08;40.47;;;21.10;;
23578;SDS011;11967;50.852;4.400;2022-12-18T16:12:33;44.53;;;22.42;;
23578;SDS011;11967;50.852;4.400;2022-12-18T16:15:00;48.47;;;23.15;;
23578;SDS011;11967;50.852;4.400;2022-12-18T16:17:25;46.97;;;23.08;;
23578;SDS011;11967;50.852;4.400;2022-12-18T16:19:51;45.20;;;22.45;;
23578;SDS011;11967;50.852;4.400;2022-12-18T16:24:47;44.35;;;22.27;;
23578;SDS011;11967;50.852;4.400;2022-12-18T16:27:13;43.45;;;20.83;;
23578;SDS011;11967;50.852;4.400;2022-12-18T16:29:39;46.63;;;22.00;;